KTVC/TVC METAR and TAF weather

Enter ICAO airport designator
Station Type Date Time Source
KTVC METAR 2021/09/25 12:53 UTC NOAA

KTVC 251253Z 19005KT 10SM FEW022 SCT050 BKN070 11/08 A2987 RMK AO2 SLP116 T01060083


Station Type Date Time Source
KTVC Decoded METAR 2021/09/25 12:53 UTC NOAA

CHERRY CAPITAL AIRPORT, MI, United States (KTVC) 44-44N 085-34W 190M
Sep 25, 2021 - 08:53 AM EDT / 2021.09.25 1253 UTC
Wind: from the S (190 degrees) at 6 MPH (5 KT):0
Visibility: 10 mile(s):0
Sky conditions: mostly cloudy
Temperature: 51.1 F (10.6 C)
Dew Point: 46.9 F (8.3 C)
Relative Humidity: 85%
Pressure (altimeter): 29.87 in. Hg (1011 hPa)
ob: KTVC 251253Z 19005KT 10SM FEW022 SCT050 BKN070 11/08 A2987 RMK AO2 SLP116 T01060083
cycle: 13

Station Type Date Time Source
KTVC TAF 2021/09/25 12:22 UTC NOAA

TAF KTVC 251120Z 2512/2612 27005KT P6SM SCT045 BKN060
FM251300 26006KT P6SM BKN100
FM251400 27007KT P6SM BKN200
FM251700 26010G22KT P6SM SCT150
FM252200 25009KT P6SM SCT120
FM261000 23006KT P6SM BKN100

Example: see airport list